createdAt,value
2019-05-05T00:01:05.120Z,96.0769
2019-05-05T00:02:08.919Z,96.7498
2019-05-05T00:03:14.738Z,96.6018
2019-05-05T00:04:17.761Z,96.4065
2019-05-05T00:05:20.892Z,96.9451
2019-05-05T00:06:25.075Z,97.5051
2019-05-05T00:07:28.841Z,97.7935
2019-05-05T00:08:31.854Z,97.7829
2019-05-05T00:09:36.830Z,97.7371
2019-05-05T00:10:39.893Z,97.3449
2019-05-05T00:11:44.447Z,97.0016
2019-05-05T00:12:47.934Z,96.8490
2019-05-05T00:13:51.892Z,97.0382
2019-05-05T00:14:55.877Z,96.6674
2019-05-05T00:15:59.550Z,96.6796
2019-05-05T00:17:05.224Z,96.4187
2019-05-05T00:18:08.851Z,96.4660
2019-05-05T00:19:11.848Z,96.6583
2019-05-05T00:20:14.832Z,96.7407
2019-05-05T00:21:17.852Z,96.8032
2019-05-05T00:22:21.166Z,96.7819
2019-05-05T00:23:25.206Z,96.5438
2019-05-05T00:24:28.852Z,96.9512
2019-05-05T00:25:34.309Z,97.5174
2019-05-05T00:26:37.190Z,97.3114
2019-05-05T00:27:40.205Z,97.4716
2019-05-05T00:28:44.822Z,97.8332
2019-05-05T00:29:48.194Z,97.6684
2019-05-05T00:30:51.825Z,97.8073
2019-05-05T00:31:54.844Z,97.7935
2019-05-05T00:32:57.781Z,97.5448
2019-05-05T00:34:01.999Z,97.9446
2019-05-05T00:35:05.774Z,97.7615
2019-05-05T00:36:10.085Z,97.7645
2019-05-05T00:37:15.190Z,97.4411
2019-05-05T00:38:18.847Z,97.4899
2019-05-05T00:39:21.875Z,97.4319
2019-05-05T00:40:25.087Z,97.3907
2019-05-05T00:41:28.838Z,97.6913
2019-05-05T00:42:31.874Z,97.9202
2019-05-05T00:43:34.853Z,97.4716
2019-05-05T00:44:37.779Z,97.7569
2019-05-05T00:45:40.900Z,97.9202
2019-05-05T00:46:44.708Z,97.9477
2019-05-05T00:47:47.921Z,97.8744
2019-05-05T00:48:51.895Z,98.3017
2019-05-05T00:49:56.285Z,98.4512
2019-05-05T00:50:59.893Z,98.6313
2019-05-05T00:52:05.128Z,98.8174
2019-05-05T00:53:08.915Z,98.9288
2019-05-05T00:54:14.738Z,99.0936
2019-05-05T00:55:18.880Z,99.2584
2019-05-05T00:56:21.885Z,99.4140
2019-05-05T00:57:25.868Z,99.5819
2019-05-05T00:58:28.870Z,99.6704
2019-05-05T00:59:32.138Z,99.8062
2019-05-05T01:00:35.850Z,99.8810
2019-05-05T01:01:38.909Z,99.8856
2019-05-05T01:02:44.805Z,99.9313
2019-05-05T01:03:49.173Z,99.9680
2019-05-05T01:04:54.974Z,99.9893
2019-05-05T01:05:58.192Z,100.0000
2019-05-05T01:07:01.195Z,100.0000
2019-05-05T01:08:05.129Z,100.0000
2019-05-05T01:09:08.178Z,100.0000
2019-05-05T01:10:11.188Z,100.0000
2019-05-05T01:11:14.557Z,100.0000
2019-05-05T01:12:17.874Z,100.0000
2019-05-05T01:13:20.863Z,100.0000
2019-05-05T01:14:24.963Z,100.0000
2019-05-05T01:15:28.756Z,100.0000
2019-05-05T01:16:31.843Z,100.0000
2019-05-05T01:17:34.858Z,100.0000
2019-05-05T01:18:37.864Z,100.0000
2019-05-05T01:19:40.825Z,100.0000
2019-05-05T01:20:44.858Z,100.0000
2019-05-05T01:21:49.078Z,100.0000
2019-05-05T01:22:51.825Z,100.0000
2019-05-05T01:23:54.973Z,100.0000
2019-05-05T01:24:58.824Z,100.0000
2019-05-05T01:26:01.829Z,100.0000
2019-05-05T01:27:04.872Z,100.0000
2019-05-05T01:28:07.841Z,100.0000
2019-05-05T01:29:10.911Z,100.0000
2019-05-05T01:30:15.198Z,100.0000
2019-05-05T01:31:18.869Z,100.0000
2019-05-05T01:32:21.796Z,100.0000
2019-05-05T01:33:25.064Z,100.0000
2019-05-05T01:34:28.882Z,100.0000
2019-05-05T01:35:34.239Z,100.0000
2019-05-05T01:36:37.832Z,100.0000
2019-05-05T01:37:40.781Z,100.0000
2019-05-05T01:38:44.683Z,100.0000
2019-05-05T01:39:47.865Z,100.0000
2019-05-05T01:40:50.769Z,100.0000
2019-05-05T01:41:54.350Z,100.0000
2019-05-05T01:42:57.893Z,100.0000
2019-05-05T01:44:01.096Z,100.0000
2019-05-05T01:45:04.865Z,100.0000
2019-05-05T01:46:07.093Z,100.0000
2019-05-05T01:47:10.864Z,100.0000
2019-05-05T01:48:14.258Z,100.0000
2019-05-05T01:49:17.785Z,100.0000
2019-05-05T01:50:21.368Z,100.0000
2019-05-05T01:51:27.091Z,100.0000
2019-05-05T01:52:30.165Z,100.0000
2019-05-05T01:53:34.953Z,100.0000
2019-05-05T01:54:38.200Z,100.0000
2019-05-05T01:55:41.870Z,100.0000
2019-05-05T01:56:44.835Z,100.0000
2019-05-05T01:57:48.767Z,100.0000
2019-05-05T01:58:51.768Z,100.0000
2019-05-05T01:59:55.227Z,100.0000
2019-05-05T02:00:58.722Z,100.0000
2019-05-05T02:02:01.875Z,100.0000
2019-05-05T02:03:04.901Z,100.0000
2019-05-05T02:04:08.814Z,100.0000
2019-05-05T02:05:11.793Z,100.0000
2019-05-05T02:06:14.783Z,100.0000
2019-05-05T02:07:17.792Z,100.0000
2019-05-05T02:08:20.811Z,100.0000
2019-05-05T02:09:25.005Z,100.0000
2019-05-05T02:10:28.914Z,100.0000
2019-05-05T02:11:35.162Z,100.0000
2019-05-05T02:12:38.820Z,100.0000
2019-05-05T02:13:41.796Z,100.0000
2019-05-05T02:14:44.935Z,100.0000
2019-05-05T02:15:48.892Z,100.0000
2019-05-05T02:16:54.617Z,100.0000
2019-05-05T02:17:57.830Z,100.0000
2019-05-05T02:19:00.856Z,100.0000
2019-05-05T02:20:05.256Z,100.0000
2019-05-05T02:21:08.865Z,100.0000
2019-05-05T02:22:12.078Z,100.0000
2019-05-05T02:23:16.026Z,100.0000
2019-05-05T02:24:19.887Z,100.0000
2019-05-05T02:25:22.799Z,100.0000
2019-05-05T02:26:25.851Z,100.0000
2019-05-05T02:27:28.875Z,100.0000
2019-05-05T02:28:32.245Z,100.0000
2019-05-05T02:29:35.812Z,100.0000
2019-05-05T02:30:38.858Z,100.0000
2019-05-05T02:31:41.823Z,100.0000
2019-05-05T02:32:45.326Z,100.0000
2019-05-05T02:33:49.226Z,100.0000
2019-05-05T02:34:55.932Z,100.0000
2019-05-05T02:35:59.842Z,100.0000
2019-05-05T02:37:05.267Z,100.0000
2019-05-05T02:38:08.184Z,100.0000
2019-05-05T02:39:11.198Z,100.0000
2019-05-05T02:40:16.252Z,100.0000
2019-05-05T02:41:19.198Z,100.0000
2019-05-05T02:42:24.779Z,100.0000
2019-05-05T02:43:28.734Z,100.0000
2019-05-05T02:44:31.183Z,100.0000
2019-05-05T02:45:35.295Z,100.0000
2019-05-05T02:46:38.804Z,100.0000
2019-05-05T02:47:40.820Z,100.0000
2019-05-05T02:48:45.039Z,100.0000
2019-05-05T02:49:48.886Z,100.0000
2019-05-05T02:51:00.744Z,100.0000
2019-05-05T02:52:00.828Z,100.0000
2019-05-05T02:53:04.207Z,100.0000
2019-05-05T02:54:07.864Z,100.0000
2019-05-05T02:55:10.879Z,100.0000
2019-05-05T02:56:14.660Z,100.0000
2019-05-05T02:57:17.819Z,100.0000
2019-05-05T02:58:20.798Z,100.0000
2019-05-05T02:59:23.920Z,100.0000
2019-05-05T03:00:27.879Z,100.0000
2019-05-05T03:01:33.902Z,100.0000
2019-05-05T03:02:37.797Z,100.0000
2019-05-05T03:03:43.844Z,100.0000
2019-05-05T03:04:49.961Z,100.0000
2019-05-05T03:05:53.915Z,100.0000
2019-05-05T03:06:57.832Z,100.0000
2019-05-05T03:08:00.843Z,100.0000
2019-05-05T03:09:04.450Z,100.0000
2019-05-05T03:10:07.793Z,100.0000
2019-05-05T03:11:10.799Z,100.0000
2019-05-05T03:12:14.909Z,100.0000
2019-05-05T03:13:20.848Z,100.0000
2019-05-05T03:14:23.669Z,100.0000
2019-05-05T03:15:26.850Z,100.0000
2019-05-05T03:16:30.140Z,100.0000
2019-05-05T03:17:34.097Z,100.0000
2019-05-05T03:18:36.354Z,100.0000
2019-05-05T03:19:39.193Z,100.0000
2019-05-05T03:20:43.587Z,100.0000
2019-05-05T03:21:46.173Z,100.0000
2019-05-05T03:22:49.162Z,100.0000
2019-05-05T03:23:52.179Z,100.0000
2019-05-05T03:24:55.187Z,100.0000
2019-05-05T03:25:58.186Z,100.0000
2019-05-05T03:27:01.175Z,100.0000
2019-05-05T03:28:04.725Z,100.0000
2019-05-05T03:29:07.798Z,100.0000
2019-05-05T03:30:10.791Z,100.0000
2019-05-05T03:31:15.875Z,100.0000
2019-05-05T03:32:19.752Z,100.0000
2019-05-05T03:33:24.987Z,100.0000
2019-05-05T03:34:28.795Z,100.0000
2019-05-05T03:35:31.814Z,100.0000
2019-05-05T03:36:34.942Z,100.0000
2019-05-05T03:37:38.838Z,100.0000
2019-05-05T03:38:41.786Z,100.0000
2019-05-05T03:39:44.829Z,100.0000
2019-05-05T03:40:47.844Z,100.0000
2019-05-05T03:41:50.862Z,100.0000
2019-05-05T03:42:53.894Z,100.0000
2019-05-05T03:43:57.850Z,100.0000
2019-05-05T03:45:00.833Z,100.0000
2019-05-05T03:46:04.449Z,100.0000
2019-05-05T03:47:07.817Z,100.0000
2019-05-05T03:48:10.815Z,100.0000
2019-05-05T03:49:14.149Z,100.0000
2019-05-05T03:50:17.851Z,100.0000
2019-05-05T03:51:24.218Z,100.0000
2019-05-05T03:52:27.850Z,100.0000
2019-05-05T03:53:30.837Z,100.0000
2019-05-05T03:54:34.350Z,100.0000
2019-05-05T03:55:37.844Z,100.0000
2019-05-05T03:56:40.783Z,100.0000
2019-05-05T03:57:44.472Z,100.0000
2019-05-05T03:58:46.858Z,100.0000
2019-05-05T03:59:49.847Z,100.0000
2019-05-05T04:00:54.814Z,100.0000
2019-05-05T04:01:57.797Z,100.0000
2019-05-05T04:03:00.797Z,100.0000
2019-05-05T04:04:04.149Z,100.0000
2019-05-05T04:05:07.813Z,100.0000
2019-05-05T04:06:10.760Z,100.0000
2019-05-05T04:07:14.034Z,100.0000
2019-05-05T04:08:17.824Z,100.0000
2019-05-05T04:09:20.190Z,100.0000
2019-05-05T04:10:24.462Z,100.0000
2019-05-05T04:11:27.192Z,100.0000
2019-05-05T04:12:30.191Z,100.0000
2019-05-05T04:13:33.986Z,100.0000
2019-05-05T04:14:37.759Z,100.0000
2019-05-05T04:15:39.202Z,100.0000
2019-05-05T04:16:43.481Z,100.0000
2019-05-05T04:17:46.714Z,100.0000
2019-05-05T04:18:49.726Z,100.0000
2019-05-05T04:19:54.195Z,100.0000
2019-05-05T04:20:57.776Z,100.0000
2019-05-05T04:22:00.729Z,100.0000
2019-05-05T04:23:03.710Z,100.0000
2019-05-05T04:24:07.838Z,100.0000
2019-05-05T04:25:10.818Z,100.0000
2019-05-05T04:26:14.324Z,100.0000
2019-05-05T04:27:17.802Z,100.0000
2019-05-05T04:28:20.793Z,100.0000
2019-05-05T04:29:24.439Z,100.0000
2019-05-05T04:30:27.828Z,100.0000
2019-05-05T04:31:30.868Z,100.0000
2019-05-05T04:32:34.829Z,100.0000
2019-05-05T04:33:38.891Z,100.0000
2019-05-05T04:34:43.825Z,100.0000
2019-05-05T04:35:48.203Z,100.0000
2019-05-05T04:36:50.910Z,100.0000
2019-05-05T04:37:54.863Z,100.0000
2019-05-05T04:38:57.834Z,100.0000
2019-05-05T04:40:00.943Z,99.9939
2019-05-05T04:41:05.119Z,99.9634
2019-05-05T04:42:08.814Z,99.9710
2019-05-05T04:43:10.993Z,100.0000
2019-05-05T04:44:17.878Z,100.0000
2019-05-05T04:45:23.883Z,99.9756
2019-05-05T04:46:28.135Z,99.9222
2019-05-05T04:47:34.161Z,99.7421
2019-05-05T04:48:37.813Z,99.5193
2019-05-05T04:49:40.887Z,99.5193
2019-05-05T04:50:44.237Z,99.2767
2019-05-05T04:51:49.989Z,98.7900
2019-05-05T04:52:54.177Z,99.0555
2019-05-05T04:53:57.187Z,99.1836
2019-05-05T04:55:00.191Z,99.3179
2019-05-05T04:56:04.184Z,99.3362
2019-05-05T04:57:07.206Z,99.4903
2019-05-05T04:58:10.733Z,99.4965
2019-05-05T04:59:14.419Z,99.5102
2019-05-05T05:00:17.822Z,99.6796
2019-05-05T05:01:28.969Z,99.6048
2019-05-05T05:02:34.122Z,99.6338
2019-05-05T05:03:37.948Z,99.2996
2019-05-05T05:04:41.816Z,98.8693
2019-05-05T05:05:44.815Z,98.7274
2019-05-05T05:06:47.920Z,98.8815
2019-05-05T05:07:51.911Z,99.2630
2019-05-05T05:08:55.844Z,99.2477
2019-05-05T05:09:58.815Z,99.3408
2019-05-05T05:11:03.686Z,99.3683
2019-05-05T05:12:06.973Z,99.4400
2019-05-05T05:13:11.202Z,98.3795
2019-05-05T05:14:14.827Z,98.7030
2019-05-05T05:15:16.942Z,98.9197
2019-05-05T05:16:20.927Z,98.9548
2019-05-05T05:17:26.931Z,98.9548
2019-05-05T05:18:31.189Z,99.2218
2019-05-05T05:19:34.864Z,99.3027
2019-05-05T05:20:37.831Z,99.2538
2019-05-05T05:21:41.068Z,99.2721
2019-05-05T05:22:44.832Z,99.2157
2019-05-05T05:23:48.308Z,98.8785
2019-05-05T05:24:53.953Z,98.4436
2019-05-05T05:25:56.835Z,98.4848
2019-05-05T05:26:59.848Z,98.2864
2019-05-05T05:28:04.161Z,97.8576
2019-05-05T05:29:08.285Z,98.1765
2019-05-05T05:30:11.212Z,98.3734
2019-05-05T05:31:14.214Z,98.0163
2019-05-05T05:32:16.203Z,98.2361
2019-05-05T05:33:19.207Z,98.4833
2019-05-05T05:34:23.868Z,98.4558
2019-05-05T05:35:28.266Z,98.7274
2019-05-05T05:36:31.205Z,98.6847
2019-05-05T05:37:34.855Z,98.4421
2019-05-05T05:38:37.204Z,98.4436
2019-05-05T05:39:40.744Z,98.8144
2019-05-05T05:40:44.430Z,98.8861
2019-05-05T05:41:46.770Z,98.9136
2019-05-05T05:42:49.767Z,98.8907
2019-05-05T05:43:54.144Z,98.6984
2019-05-05T05:44:57.829Z,98.7732
2019-05-05T05:45:59.943Z,98.7396
2019-05-05T05:47:03.905Z,98.8235
2019-05-05T05:48:07.889Z,98.9014
2019-05-05T05:49:13.396Z,98.9426
2019-05-05T05:50:17.184Z,99.1150
2019-05-05T05:51:20.831Z,99.1714
2019-05-05T05:52:24.367Z,99.2813
2019-05-05T05:53:26.954Z,99.0051
2019-05-05T05:54:30.881Z,98.4695
2019-05-05T05:55:34.464Z,98.3093
2019-05-05T05:56:37.930Z,98.4985
2019-05-05T05:57:43.765Z,98.5031
2019-05-05T05:58:47.906Z,98.4573
2019-05-05T05:59:51.856Z,98.7762
2019-05-05T06:00:55.200Z,98.8037
2019-05-05T06:02:09.198Z,98.6114
2019-05-05T06:03:07.133Z,98.3963
2019-05-05T06:04:10.755Z,98.1674
2019-05-05T06:05:14.804Z,98.1964
2019-05-05T06:06:19.267Z,98.3688
2019-05-05T06:07:24.516Z,98.6847
2019-05-05T06:08:30.052Z,98.3566
2019-05-05T06:09:34.431Z,98.2727
2019-05-05T06:10:36.179Z,98.6999
2019-05-05T06:11:38.196Z,98.4527
2019-05-05T06:12:41.187Z,98.7121
2019-05-05T06:13:47.387Z,98.7625
2019-05-05T06:14:53.571Z,97.9904
2019-05-05T06:15:56.841Z,98.0591
2019-05-05T06:16:59.842Z,98.1216
2019-05-05T06:18:04.622Z,98.3337
2019-05-05T06:19:06.919Z,98.3825
2019-05-05T06:20:10.851Z,97.9904
2019-05-05T06:21:13.959Z,97.8439
2019-05-05T06:22:28.082Z,97.7279
2019-05-05T06:23:25.857Z,97.5402
2019-05-05T06:24:27.878Z,97.5357
2019-05-05T06:25:34.000Z,96.6720
2019-05-05T06:27:10.776Z,96.6751
2019-05-05T06:28:14.555Z,96.4324
2019-05-05T06:29:17.178Z,96.3973
2019-05-05T06:30:19.195Z,96.4477
2019-05-05T06:31:24.436Z,96.5743
2019-05-05T06:32:27.178Z,96.6995
2019-05-05T06:33:30.832Z,97.1786
2019-05-05T06:34:33.985Z,97.1695
2019-05-05T06:35:37.776Z,97.3770
2019-05-05T06:36:40.852Z,95.6558
2019-05-05T06:37:46.614Z,96.6659
2019-05-05T06:38:49.925Z,96.8215
2019-05-05T06:39:54.431Z,97.1145
2019-05-05T06:40:57.832Z,97.1664
2019-05-05T06:42:04.364Z,96.5148
2019-05-05T06:43:07.856Z,96.3790
2019-05-05T06:44:11.136Z,96.8139
2019-05-05T06:45:14.426Z,96.6155
2019-05-05T06:46:17.876Z,96.4233
2019-05-05T06:47:21.150Z,96.2127
2019-05-05T06:48:24.831Z,96.5118
2019-05-05T06:49:27.875Z,96.2859
2019-05-05T06:50:31.844Z,97.2534
2019-05-05T06:51:44.067Z,96.6308
2019-05-05T06:52:47.881Z,96.9268
2019-05-05T06:53:51.281Z,97.0336
2019-05-05T06:55:10.774Z,96.6628
2019-05-05T06:56:14.556Z,96.2188
2019-05-05T06:57:17.180Z,96.2448
2019-05-05T06:58:20.190Z,96.5896
2019-05-05T06:59:24.286Z,95.0011
2019-05-05T07:00:27.766Z,96.0891
2019-05-05T07:01:30.871Z,96.1166
2019-05-05T07:02:34.255Z,94.8959
2019-05-05T07:03:37.781Z,95.8099
2019-05-05T07:04:40.918Z,96.0861
2019-05-05T07:05:44.848Z,95.2789
2019-05-05T07:06:54.199Z,96.8093
2019-05-05T07:07:56.931Z,97.2122
2019-05-05T07:09:00.949Z,97.5738
2019-05-05T07:10:04.862Z,97.0825
2019-05-05T07:11:07.955Z,96.1227
2019-05-05T07:12:13.818Z,95.5230
2019-05-05T07:13:17.912Z,95.5367
2019-05-05T07:14:23.606Z,94.5113
2019-05-05T07:15:26.892Z,93.7224
2019-05-05T07:16:30.933Z,95.1186
2019-05-05T07:17:34.920Z,95.4864
2019-05-05T07:18:38.925Z,96.1257
2019-05-05T07:19:44.940Z,96.7361
2019-05-05T07:20:48.909Z,96.8689
2019-05-05T07:21:53.800Z,95.9106
2019-05-05T07:23:02.080Z,96.5759
2019-05-05T07:24:06.264Z,95.9380
2019-05-05T07:25:10.273Z,95.2560
2019-05-05T07:26:14.437Z,95.6268
2019-05-05T07:27:17.187Z,95.2422
2019-05-05T07:28:20.174Z,95.3582
2019-05-05T07:29:23.900Z,95.7244
2019-05-05T07:30:27.191Z,95.8160
2019-05-05T07:31:30.176Z,93.4844
2019-05-05T07:32:33.803Z,94.4732
2019-05-05T07:33:37.830Z,96.0677
2019-05-05T07:34:40.179Z,97.3343
2019-05-05T07:36:06.428Z,96.3378
2019-05-05T07:37:08.916Z,95.6924
2019-05-05T07:38:13.835Z,95.5688
2019-05-05T07:39:17.892Z,95.9106
2019-05-05T07:40:21.626Z,95.9976
2019-05-05T07:41:24.897Z,94.4183
2019-05-05T07:42:28.958Z,94.6654
2019-05-05T07:43:34.499Z,95.3628
2019-05-05T07:44:37.846Z,95.3018
2019-05-05T07:45:40.935Z,95.6771
2019-05-05T07:46:44.879Z,94.7906
2019-05-05T07:47:48.630Z,94.5235
2019-05-05T07:48:51.907Z,95.5413
2019-05-05T07:49:55.850Z,95.2010
2019-05-05T07:51:02.802Z,94.2351
2019-05-05T07:52:07.252Z,96.6354
2019-05-05T07:53:14.424Z,95.4620
2019-05-05T07:54:17.295Z,95.6130
2019-05-05T07:55:19.176Z,94.1726
2019-05-05T07:56:23.766Z,94.9371
2019-05-05T07:57:26.201Z,93.8476
2019-05-05T07:58:29.188Z,90.6432
2019-05-05T07:59:34.026Z,91.6457
2019-05-05T08:00:37.725Z,93.7545
2019-05-05T08:01:43.262Z,92.8588
2019-05-05T08:02:48.900Z,92.4727
2019-05-05T08:03:53.889Z,93.7316
2019-05-05T08:04:57.858Z,92.3125
2019-05-05T08:06:00.882Z,93.9193
2019-05-05T08:07:04.200Z,92.0989
2019-05-05T08:08:07.935Z,90.8843
2019-05-05T08:09:11.903Z,92.0348
2019-05-05T08:10:15.909Z,89.7551
2019-05-05T08:11:19.833Z,89.3385
2019-05-05T08:12:21.842Z,88.3253
2019-05-05T08:13:24.833Z,90.4952
2019-05-05T08:14:27.879Z,91.5160
2019-05-05T08:15:34.389Z,88.6748
2019-05-05T08:17:04.239Z,90.9819
2019-05-05T08:18:07.177Z,88.6519
2019-05-05T08:19:10.187Z,88.5725
2019-05-05T08:20:14.293Z,87.9133
2019-05-05T08:21:17.173Z,89.8772
2019-05-05T08:22:20.171Z,90.2480
2019-05-05T08:23:30.270Z,89.6498
2019-05-05T08:24:33.637Z,89.2592
2019-05-05T08:25:40.195Z,89.1325
2019-05-05T08:26:44.243Z,88.7739
2019-05-05T08:27:47.890Z,88.6793
2019-05-05T08:28:51.193Z,85.1118
2019-05-05T08:29:54.901Z,86.6651
2019-05-05T08:30:58.939Z,86.8833
2019-05-05T08:32:04.429Z,89.2790
2019-05-05T08:33:06.876Z,84.6265
2019-05-05T08:34:10.671Z,87.0436
2019-05-05T08:35:14.780Z,86.4897
2019-05-05T08:36:17.894Z,87.3960
2019-05-05T08:37:23.498Z,89.0303
2019-05-05T08:38:27.058Z,87.4342
2019-05-05T08:39:30.926Z,87.9789
2019-05-05T08:40:34.900Z,86.3020
2019-05-05T08:41:40.005Z,85.5695
2019-05-05T08:42:44.543Z,85.7984
2019-05-05T08:43:47.815Z,87.8874
2019-05-05T08:44:49.930Z,87.2084
2019-05-05T08:46:14.176Z,88.0110
2019-05-05T08:47:17.185Z,88.2933
2019-05-05T08:48:20.187Z,89.0867
2019-05-05T08:49:24.382Z,89.6590
2019-05-05T08:50:27.308Z,88.8624
2019-05-05T08:51:30.198Z,87.7501
2019-05-05T08:52:34.255Z,87.3732
2019-05-05T08:53:44.984Z,88.4627
2019-05-05T08:55:15.777Z,87.4159
2019-05-05T08:56:18.852Z,86.2486
2019-05-05T08:57:24.864Z,86.1204
2019-05-05T08:58:27.857Z,87.2587
2019-05-05T08:59:30.886Z,87.0436
2019-05-05T09:00:34.103Z,86.2608
2019-05-05T09:01:37.885Z,87.8584
2019-05-05T09:02:43.620Z,87.8874
2019-05-05T09:03:46.953Z,87.1351
2019-05-05T09:04:58.690Z,87.1717
2019-05-05T09:06:01.670Z,87.6219
2019-05-05T09:07:04.991Z,85.6245
2019-05-05T09:08:08.186Z,87.4144
2019-05-05T09:09:11.212Z,85.4337
2019-05-05T09:10:14.357Z,86.9520
2019-05-05T09:11:17.185Z,85.3910
2019-05-05T09:12:20.203Z,83.9582
2019-05-05T09:13:24.686Z,83.7125
2019-05-05T09:14:27.785Z,83.3905
2019-05-05T09:15:30.779Z,83.8773
2019-05-05T09:16:33.791Z,83.0991
2019-05-05T09:17:36.742Z,83.3631
2019-05-05T09:18:39.929Z,81.8112
2019-05-05T09:19:44.899Z,81.4862
2019-05-05T09:20:48.781Z,83.2135
2019-05-05T09:21:54.004Z,82.5391
2019-05-05T09:22:57.360Z,82.7405
2019-05-05T09:24:04.694Z,83.6118
2019-05-05T09:25:08.835Z,83.7568
2019-05-05T09:26:26.958Z,83.8849
2019-05-05T09:27:30.824Z,83.6255
2019-05-05T09:28:34.107Z,82.4994
2019-05-05T09:29:37.768Z,84.1047
2019-05-05T09:30:40.195Z,82.3835
2019-05-05T09:31:45.084Z,81.2726
2019-05-05T09:32:49.119Z,82.9847
2019-05-05T09:33:53.661Z,83.2761
2019-05-05T09:34:56.962Z,82.4170
2019-05-05T09:36:01.216Z,80.7233
2019-05-05T09:37:04.175Z,80.6119
2019-05-05T09:38:07.180Z,83.1311
2019-05-05T09:39:10.179Z,83.5233
2019-05-05T09:40:13.874Z,80.5219
2019-05-05T09:41:17.188Z,80.2457
2019-05-05T09:42:20.195Z,80.2365
2019-05-05T09:43:24.111Z,80.9781
2019-05-05T09:44:27.828Z,81.0147
2019-05-05T09:45:30.908Z,79.7253
2019-05-05T09:46:34.814Z,82.7512
2019-05-05T09:47:37.961Z,81.0239
2019-05-05T09:48:43.886Z,79.3301
2019-05-05T09:49:47.876Z,78.3749
2019-05-05T09:50:51.113Z,78.0117
2019-05-05T09:51:54.976Z,80.1404
2019-05-05T09:52:58.895Z,78.8190
2019-05-05T09:54:13.781Z,79.4995
2019-05-05T09:55:11.225Z,79.9039
2019-05-05T09:56:14.876Z,79.5926
2019-05-05T09:57:18.487Z,80.2960
2019-05-05T09:58:20.885Z,79.9588
2019-05-05T09:59:24.730Z,79.6643
2019-05-05T10:00:27.883Z,79.4629
2019-05-05T10:01:33.794Z,78.8098
2019-05-05T10:02:37.874Z,78.2681
2019-05-05T10:03:40.901Z,77.5631
2019-05-05T10:04:44.256Z,78.2956
2019-05-05T10:05:47.904Z,76.4248
2019-05-05T10:06:51.057Z,77.7523
2019-05-05T10:07:54.813Z,79.0982
2019-05-05T10:08:58.203Z,74.7936
2019-05-05T10:10:01.886Z,79.5468
2019-05-05T10:11:05.900Z,77.1145
2019-05-05T10:12:09.220Z,76.0952
2019-05-05T10:13:14.661Z,77.5326
2019-05-05T10:14:18.203Z,77.8973
2019-05-05T10:15:21.236Z,75.2056
2019-05-05T10:16:24.184Z,76.2859
2019-05-05T10:17:33.662Z,76.2219
2019-05-05T10:18:36.750Z,77.0962
2019-05-05T10:19:39.490Z,75.0332
2019-05-05T10:20:42.834Z,75.3033
2019-05-05T10:21:45.186Z,74.7463
2019-05-05T10:22:48.191Z,74.6700
2019-05-05T10:23:51.186Z,75.0561
2019-05-05T10:24:57.228Z,74.7875
2019-05-05T10:26:01.815Z,75.3521
2019-05-05T10:27:05.260Z,75.6695
2019-05-05T10:28:08.195Z,77.3983
2019-05-05T10:29:13.624Z,79.2615
2019-05-05T10:30:15.977Z,75.0652
2019-05-05T10:31:19.998Z,78.4237
2019-05-05T10:32:24.474Z,75.8511
2019-05-05T10:33:27.867Z,78.6252
2019-05-05T10:34:30.203Z,72.7199
2019-05-05T10:35:34.430Z,74.0002
2019-05-05T10:36:37.834Z,71.2825
2019-05-05T10:37:40.823Z,70.4845
2019-05-05T10:38:44.426Z,69.9626
2019-05-05T10:39:47.803Z,72.2210
2019-05-05T10:40:51.010Z,71.9173
2019-05-05T10:41:56.180Z,73.3913
2019-05-05T10:43:36.814Z,75.3628
2019-05-05T10:44:39.197Z,73.0755
2019-05-05T10:45:43.894Z,73.8857
2019-05-05T10:46:47.193Z,72.2896
2019-05-05T10:47:50.174Z,74.1756
2019-05-05T10:48:53.820Z,77.1786
2019-05-05T10:49:56.802Z,76.2554
2019-05-05T10:50:59.776Z,75.9899
2019-05-05T10:52:03.784Z,76.9451
2019-05-05T10:53:07.899Z,77.3205
2019-05-05T10:54:11.134Z,77.1801
2019-05-05T10:55:14.856Z,76.1349
2019-05-05T10:56:16.875Z,77.1420
2019-05-05T10:57:20.073Z,77.0871
2019-05-05T10:58:24.403Z,78.0911
2019-05-05T10:59:27.810Z,76.2142
2019-05-05T11:00:31.035Z,76.1685
2019-05-05T11:01:34.846Z,77.9843
2019-05-05T11:02:37.841Z,76.9589
2019-05-05T11:03:40.771Z,77.4945
2019-05-05T11:04:44.293Z,77.6699
2019-05-05T11:05:47.871Z,77.9721
2019-05-05T11:06:49.822Z,75.6420
2019-05-05T11:07:53.762Z,78.4741
2019-05-05T11:08:56.807Z,78.0117
2019-05-05T11:09:59.819Z,78.3612
2019-05-05T11:11:04.202Z,77.8241
2019-05-05T11:12:37.937Z,76.1257
2019-05-05T11:13:42.800Z,78.3795
2019-05-05T11:14:48.185Z,76.3043
2019-05-05T11:15:51.190Z,75.0546
2019-05-05T11:16:54.619Z,73.7591
2019-05-05T11:17:57.236Z,71.3634
2019-05-05T11:19:00.179Z,72.9198
2019-05-05T11:20:03.828Z,72.2881
2019-05-05T11:21:06.800Z,72.4254
2019-05-05T11:22:09.750Z,74.3984
2019-05-05T11:23:14.836Z,74.9249
2019-05-05T11:24:18.803Z,75.7931
2019-05-05T11:25:21.913Z,73.5744
2019-05-05T11:26:25.864Z,76.2188
2019-05-05T11:27:28.827Z,74.3526
2019-05-05T11:28:33.771Z,74.6548
2019-05-05T11:29:37.857Z,73.2876
2019-05-05T11:30:42.031Z,75.8663
2019-05-05T11:31:45.897Z,75.1064
2019-05-05T11:32:49.884Z,73.5607
2019-05-05T11:33:54.165Z,73.9788
2019-05-05T11:34:57.896Z,73.1762
2019-05-05T11:36:04.476Z,71.7540
2019-05-05T11:37:07.868Z,74.6151
2019-05-05T11:38:10.868Z,73.3379
2019-05-05T11:39:14.794Z,71.7586
2019-05-05T11:40:18.860Z,72.4590
2019-05-05T11:41:20.872Z,71.0628
2019-05-05T11:42:42.826Z,71.5389
2019-05-05T11:43:45.922Z,71.9738
2019-05-05T11:44:50.066Z,68.2475
2019-05-05T11:45:54.484Z,72.1782
2019-05-05T11:46:57.784Z,65.7282
2019-05-05T11:48:00.745Z,66.7552
2019-05-05T11:49:04.930Z,67.2038
2019-05-05T11:50:08.396Z,70.8598
2019-05-05T11:51:49.964Z,64.0452
2019-05-05T11:53:24.950Z,63.3341
2019-05-05T11:54:28.211Z,65.7008
2019-05-05T11:55:31.187Z,63.5035
2019-05-05T11:56:34.217Z,65.2522
2019-05-05T11:57:40.238Z,66.9429
2019-05-05T11:58:44.342Z,60.5844
2019-05-05T11:59:47.175Z,60.6378
2019-05-05T12:00:54.506Z,61.7960
2019-05-05T12:01:57.807Z,59.4385
2019-05-05T12:03:00.202Z,58.4283
2019-05-05T12:04:04.053Z,62.8809
2019-05-05T12:05:16.882Z,59.6872
2019-05-05T12:06:44.135Z,61.6678
2019-05-05T12:08:10.761Z,63.3616
2019-05-05T12:09:14.103Z,58.4771
2019-05-05T12:10:17.207Z,62.9786
2019-05-05T12:11:20.797Z,64.1138
2019-05-05T12:12:23.763Z,63.8712
2019-05-05T12:13:27.030Z,65.3986
2019-05-05T12:14:30.781Z,65.5650
2019-05-05T12:15:34.201Z,64.6540
2019-05-05T12:16:37.899Z,63.1754
2019-05-05T12:17:43.755Z,63.6912
2019-05-05T12:18:47.805Z,63.7644
2019-05-05T12:19:51.154Z,64.1321
2019-05-05T12:20:54.892Z,66.4057
2019-05-05T12:21:58.096Z,64.5624
2019-05-05T12:23:01.909Z,60.2167
2019-05-05T12:24:05.888Z,55.8267
2019-05-05T12:25:22.545Z,56.7697
2019-05-05T12:26:17.815Z,58.7350
2019-05-05T12:27:20.927Z,56.1303
2019-05-05T12:28:24.856Z,58.3764
2019-05-05T12:29:27.851Z,57.6684
2019-05-05T12:30:30.871Z,56.9436
2019-05-05T12:31:33.974Z,55.3750
2019-05-05T12:32:46.747Z,54.2351
2019-05-05T12:33:48.764Z,54.6227
2019-05-05T12:34:53.657Z,55.4925
2019-05-05T12:35:56.186Z,52.3110
2019-05-05T12:36:59.835Z,55.4391
2019-05-05T12:38:02.265Z,54.1878
2019-05-05T12:39:05.818Z,52.7291
2019-05-05T12:40:08.192Z,53.2540
2019-05-05T12:41:11.898Z,50.5913
2019-05-05T12:42:14.244Z,52.6223
2019-05-05T12:43:18.375Z,57.1084
2019-05-05T12:44:23.507Z,53.6904
2019-05-05T12:45:28.263Z,52.0867
2019-05-05T12:46:31.175Z,54.1115
2019-05-05T12:47:34.860Z,54.4778
2019-05-05T12:48:37.187Z,52.6406
2019-05-05T12:49:40.182Z,54.2611
2019-05-05T12:50:44.307Z,52.7825
2019-05-05T12:51:47.192Z,52.1248